Time;durP1;ratioP1;P1;durP2;ratioP2;P2;SDS_P1;SDS_P2;PMS_P1;PMS_P2;Temp;Humidity;BMP_temperature;BMP_pressure;BME280_temperature;BME280_humidity;BME280_pressure;Samples;Min_cycle;Max_cycle;Signal;HPM_P1;HPM_P2
2021/12/12 00:01:36;;;;;;;42.05;5.55;;;;;;;;;;5055873;28;20029;-69
2021/12/12 00:04:13;;;;;;;30.60;6.00;;;;;;;;;;5055845;28;20049;-69
2021/12/12 00:06:54;;;;;;;40.78;13.25;;;;;;;;;;5038159;28;20456;-69
2021/12/12 00:09:54;;;;;;;47.83;15.93;;;;;;;;;;5055826;28;20029;-69
2021/12/12 00:12:22;;;;;;;44.25;13.43;;;;;;;;;;4955505;28;20716;-70
2021/12/12 00:14:51;;;;;;;40.88;10.45;;;;;;;;;;4955937;29;20118;-69
2021/12/12 00:17:19;;;;;;;48.15;14.23;;;;;;;;;;4955915;29;20034;-70
2021/12/12 00:19:47;;;;;;;53.03;13.70;;;;;;;;;;4939878;29;20318;-70
2021/12/12 00:22:17;;;;;;;48.97;12.00;;;;;;;;;;4939833;29;20062;-69
2021/12/12 00:24:45;;;;;;;55.35;12.32;;;;;;;;;;4955853;28;20162;-69
2021/12/12 00:27:12;;;;;;;46.53;11.68;;;;;;;;;;4939759;29;20075;-69
2021/12/12 00:29:40;;;;;;;50.67;13.80;;;;;;;;;;4939659;29;20143;-69
2021/12/12 00:32:14;;;;;;;48.13;14.95;;;;;;;;;;4955591;29;20031;-69
2021/12/12 00:34:47;;;;;;;48.08;16.33;;;;;;;;;;4956917;28;20483;-69
2021/12/12 00:37:15;;;;;;;55.13;16.65;;;;;;;;;;4959336;29;20035;-69
2021/12/12 00:39:47;;;;;;;45.88;13.68;;;;;;;;;;4959249;29;20339;-69
2021/12/12 00:42:18;;;;;;;62.47;17.02;;;;;;;;;;4959186;29;20035;-69
2021/12/12 00:44:49;;;;;;;77.63;25.05;;;;;;;;;;4959260;29;20033;-69
2021/12/12 00:47:17;;;;;;;60.83;21.17;;;;;;;;;;4978499;28;20373;-69
2021/12/12 00:49:45;;;;;;;59.17;23.80;;;;;;;;;;5039120;28;20017;-70
2021/12/12 00:52:14;;;;;;;55.90;23.10;;;;;;;;;;5037853;28;20017;-69
2021/12/12 00:54:42;;;;;;;74.90;23.27;;;;;;;;;;5038967;28;20083;-69
2021/12/12 00:57:11;;;;;;;79.38;25.40;;;;;;;;;;5038887;28;20044;-69
2021/12/12 00:59:39;;;;;;;75.18;22.45;;;;;;;;;;5038871;28;20092;-69
2021/12/12 01:02:09;;;;;;;62.47;20.98;;;;;;;;;;5038742;28;20378;-69
2021/12/12 01:04:41;;;;;;;73.30;19.08;;;;;;;;;;5038889;28;20029;-69
2021/12/12 01:07:12;;;;;;;68.22;14.50;;;;;;;;;;5038732;28;20021;-69
2021/12/12 01:09:42;;;;;;;63.03;13.82;;;;;;;;;;5038680;28;20028;-69
2021/12/12 01:12:12;;;;;;;49.72;16.80;;;;;;;;;;5038701;28;20022;-69
2021/12/12 01:14:42;;;;;;;63.67;19.75;;;;;;;;;;5057995;28;20148;-69
2021/12/12 01:17:11;;;;;;;69.40;18.27;;;;;;;;;;5040576;28;20028;-69
2021/12/12 01:19:54;;;;;;;68.43;20.30;;;;;;;;;;5057850;28;20104;-69
2021/12/12 01:22:30;;;;;;;67.18;23.08;;;;;;;;;;5057836;28;20376;-69
2021/12/12 01:25:00;;;;;;;68.85;20.13;;;;;;;;;;4996531;28;20459;-69
2021/12/12 01:27:27;;;;;;;62.17;16.48;;;;;;;;;;4996769;28;20045;-69
2021/12/12 01:29:55;;;;;;;78.45;23.75;;;;;;;;;;4996443;28;20038;-69
2021/12/12 01:32:30;;;;;;;84.60;27.60;;;;;;;;;;4980170;28;20026;-69
2021/12/12 01:34:58;;;;;;;51.00;13.40;;;;;;;;;;4996716;28;20034;-69
2021/12/12 01:40:16;;;;;;;87.57;36.15;;;;;;;;;;4996797;28;20054;-69
2021/12/12 01:42:55;;;;;;;90.70;38.65;;;;;;;;;;4996533;28;20081;-69
2021/12/12 01:45:27;;;;;;;100.55;37.25;;;;;;;;;;4980115;28;20450;-69
2021/12/12 01:47:58;;;;;;;97.25;40.03;;;;;;;;;;4996722;28;20117;-69
2021/12/12 01:50:33;;;;;;;84.70;36.47;;;;;;;;;;4980289;28;20030;-69
2021/12/12 01:53:02;;;;;;;87.80;32.22;;;;;;;;;;4996475;28;20038;-69
2021/12/12 01:55:32;;;;;;;77.10;25.40;;;;;;;;;;5017567;28;20104;-69
2021/12/12 01:58:04;;;;;;;74.90;21.70;;;;;;;;;;5057703;28;20048;-69
2021/12/12 02:00:37;;;;;;;78.80;23.85;;;;;;;;;;5039773;28;20032;-69
2021/12/12 02:03:06;;;;;;;81.53;24.33;;;;;;;;;;5041235;28;20429;-68
2021/12/12 02:05:36;;;;;;;71.80;24.63;;;;;;;;;;5057556;28;20418;-69
2021/12/12 02:08:06;;;;;;;69.07;25.90;;;;;;;;;;5057206;28;20318;-67
2021/12/12 02:10:39;;;;;;;94.40;28.80;;;;;;;;;;5039688;28;20021;-68
2021/12/12 02:13:07;;;;;;;110.70;36.63;;;;;;;;;;5039468;28;20124;-67
2021/12/12 02:15:37;;;;;;;97.80;28.83;;;;;;;;;;5039704;28;20020;-68
2021/12/12 02:18:13;;;;;;;79.15;29.17;;;;;;;;;;5057541;28;20394;-67
2021/12/12 02:20:57;;;;;;;96.88;34.75;;;;;;;;;;5057178;28;20029;-68
2021/12/12 02:24:00;;;;;;;78.40;28.95;;;;;;;;;;5057163;28;20028;-68
2021/12/12 02:37:40;;;;;;;168.82;58.03;;;;;;;;;;4996138;28;20240;-68
2021/12/12 02:40:11;;;;;;;154.38;53.55;;;;;;;;;;4979650;28;20438;-68
2021/12/12 02:42:39;;;;;;;156.85;53.35;;;;;;;;;;4979578;28;20023;-67
2021/12/12 02:45:08;;;;;;;147.10;50.92;;;;;;;;;;4995849;28;20038;-67
2021/12/12 02:47:37;;;;;;;128.77;40.35;;;;;;;;;;4995744;28;20057;-68
2021/12/12 02:50:13;;;;;;;91.72;30.10;;;;;;;;;;4995729;28;20053;-68
2021/12/12 02:52:43;;;;;;;89.35;26.55;;;;;;;;;;4979447;28;20023;-68
2021/12/12 02:55:16;;;;;;;76.10;19.13;;;;;;;;;;4995768;28;20037;-68
2021/12/12 02:57:44;;;;;;;68.28;19.08;;;;;;;;;;4994978;28;20042;-68
2021/12/12 03:00:14;;;;;;;69.57;18.05;;;;;;;;;;4995601;28;20165;-68
2021/12/12 03:02:45;;;;;;;85.05;24.38;;;;;;;;;;5010374;28;20442;-68
2021/12/12 03:05:14;;;;;;;125.90;37.70;;;;;;;;;;5038918;28;20330;-67
2021/12/12 03:07:43;;;;;;;128.35;39.40;;;;;;;;;;5056601;28;20098;-68
2021/12/12 03:10:12;;;;;;;95.70;27.95;;;;;;;;;;5056519;28;20173;-68
2021/12/12 03:12:39;;;;;;;85.80;25.88;;;;;;;;;;5038639;28;20044;-67
2021/12/12 03:15:09;;;;;;;82.53;28.10;;;;;;;;;;5038665;28;20017;-68
2021/12/12 03:17:38;;;;;;;109.72;35.10;;;;;;;;;;5051085;28;20029;-68
2021/12/12 03:20:10;;;;;;;87.30;24.95;;;;;;;;;;5056007;28;20021;-68
2021/12/12 03:22:38;;;;;;;79.97;22.90;;;;;;;;;;5038587;28;20364;-68
2021/12/12 03:25:07;;;;;;;78.95;20.48;;;;;;;;;;5038615;28;20018;-68
2021/12/12 03:27:35;;;;;;;72.30;17.15;;;;;;;;;;5056206;28;20052;-68
2021/12/12 03:30:04;;;;;;;71.10;19.02;;;;;;;;;;5058106;28;20017;-70
2021/12/12 03:32:32;;;;;;;84.55;23.17;;;;;;;;;;5039214;28;20025;-70
2021/12/12 03:35:00;;;;;;;74.93;23.05;;;;;;;;;;5039404;28;20049;-70
2021/12/12 03:37:29;;;;;;;68.88;23.75;;;;;;;;;;5038732;28;20452;-69
2021/12/12 03:39:58;;;;;;;93.03;23.52;;;;;;;;;;5056405;28;20314;-70
2021/12/12 03:42:27;;;;;;;143.82;34.30;;;;;;;;;;5056457;28;20100;-70
2021/12/12 03:44:55;;;;;;;140.20;41.70;;;;;;;;;;5056262;28;20025;-70
2021/12/12 03:47:30;;;;;;;140.25;40.90;;;;;;;;;;5038751;28;20025;-73
2021/12/12 03:49:59;;;;;;;146.00;28.30;;;;;;;;;;5056600;28;20017;-71
2021/12/12 03:52:27;;;;;;;96.10;25.15;;;;;;;;;;5038729;28;20325;-70
2021/12/12 03:54:58;;;;;;;92.13;20.98;;;;;;;;;;5057697;28;20017;-70
2021/12/12 03:57:27;;;;;;;81.43;18.65;;;;;;;;;;5057229;28;20409;-69
2021/12/12 03:59:55;;;;;;;87.82;18.77;;;;;;;;;;5058350;28;20321;-70
2021/12/12 04:02:23;;;;;;;75.22;17.73;;;;;;;;;;5040261;28;20113;-69
2021/12/12 04:04:51;;;;;;;79.15;17.00;;;;;;;;;;5057355;28;20025;-69
2021/12/12 04:07:22;;;;;;;78.60;17.63;;;;;;;;;;5058194;28;20083;-70
2021/12/12 04:09:50;;;;;;;73.22;16.20;;;;;;;;;;5060463;28;20029;-70
2021/12/12 04:12:27;;;;;;;84.07;17.35;;;;;;;;;;5043339;28;20079;-71
2021/12/12 04:14:56;;;;;;;80.85;16.65;;;;;;;;;;5060888;28;20033;-69
2021/12/12 04:17:25;;;;;;;78.15;16.98;;;;;;;;;;5042845;28;20022;-69
2021/12/12 04:19:56;;;;;;;75.95;17.60;;;;;;;;;;5043648;28;20070;-68
2021/12/12 04:22:24;;;;;;;73.43;18.02;;;;;;;;;;5043555;28;20017;-69
2021/12/12 04:24:53;;;;;;;82.57;19.02;;;;;;;;;;5059987;28;20479;-70
2021/12/12 04:27:21;;;;;;;89.18;18.85;;;;;;;;;;5059748;28;20750;-69
2021/12/12 04:29:50;;;;;;;91.30;18.55;;;;;;;;;;5043186;28;20355;-69
2021/12/12 04:32:23;;;;;;;84.22;18.20;;;;;;;;;;5042329;28;20120;-69
2021/12/12 04:34:53;;;;;;;83.75;17.98;;;;;;;;;;5042771;28;20071;-70
2021/12/12 04:37:21;;;;;;;72.47;16.85;;;;;;;;;;5042056;28;20029;-69
2021/12/12 04:39:50;;;;;;;91.72;18.10;;;;;;;;;;5060850;28;20020;-69
2021/12/12 04:42:20;;;;;;;94.30;18.30;;;;;;;;;;5059892;28;20036;-69
2021/12/12 04:44:51;;;;;;;74.70;16.35;;;;;;;;;;5060477;28;20028;-69
2021/12/12 04:50:40;;;;;;;84.88;17.15;;;;;;;;;;5062272;28;20036;-69
2021/12/12 04:53:16;;;;;;;73.45;16.67;;;;;;;;;;5061506;28;20025;-70
2021/12/12 04:56:01;;;;;;;76.45;17.27;;;;;;;;;;5042143;28;20475;-69
2021/12/12 04:58:50;;;;;;;71.10;16.42;;;;;;;;;;5059236;28;20029;-69
2021/12/12 05:01:21;;;;;;;75.18;17.73;;;;;;;;;;4942944;29;20031;-68
2021/12/12 05:03:56;;;;;;;73.05;17.65;;;;;;;;;;4943714;29;20042;-68
2021/12/12 05:06:37;;;;;;;101.47;18.60;;;;;;;;;;4959909;29;20143;-69
2021/12/12 05:09:07;;;;;;;87.55;17.10;;;;;;;;;;4958823;29;20027;-68
2021/12/12 05:11:51;;;;;;;78.13;16.65;;;;;;;;;;4942975;29;20123;-69
2021/12/12 05:14:22;;;;;;;146.07;20.25;;;;;;;;;;4942693;29;20047;-70
2021/12/12 05:16:52;;;;;;;84.05;17.30;;;;;;;;;;4959127;29;20031;-70
2021/12/12 05:19:28;;;;;;;86.95;18.50;;;;;;;;;;4944502;29;20042;-69
2021/12/12 05:21:59;;;;;;;72.72;16.00;;;;;;;;;;4944302;29;20030;-69
2021/12/12 05:24:28;;;;;;;78.30;18.10;;;;;;;;;;4960581;29;20039;-71
2021/12/12 05:27:02;;;;;;;93.22;18.98;;;;;;;;;;4942858;29;20114;-67
2021/12/12 05:29:34;;;;;;;87.25;17.85;;;;;;;;;;4942930;29;20047;-68
2021/12/12 05:32:05;;;;;;;91.78;17.48;;;;;;;;;;4942885;29;20045;-67
2021/12/12 05:34:34;;;;;;;85.22;18.23;;;;;;;;;;4958720;29;20031;-67
2021/12/12 05:37:02;;;;;;;76.18;17.75;;;;;;;;;;4942491;29;20038;-68
2021/12/12 05:39:30;;;;;;;78.82;18.77;;;;;;;;;;5041573;28;20076;-69
2021/12/12 05:41:59;;;;;;;85.57;19.55;;;;;;;;;;5060103;28;20033;-70
2021/12/12 05:44:31;;;;;;;79.85;17.85;;;;;;;;;;5040640;28;20087;-68
2021/12/12 05:47:00;;;;;;;95.80;19.40;;;;;;;;;;5058649;28;20434;-68
2021/12/12 05:49:28;;;;;;;91.55;20.92;;;;;;;;;;5059119;28;20029;-69
2021/12/12 05:51:56;;;;;;;91.15;19.98;;;;;;;;;;5040393;28;20364;-70
2021/12/12 05:54:25;;;;;;;91.80;22.20;;;;;;;;;;5040335;28;20108;-68
2021/12/12 05:56:53;;;;;;;92.82;20.67;;;;;;;;;;5057966;28;20025;-69
2021/12/12 05:59:22;;;;;;;90.07;21.35;;;;;;;;;;5058980;28;20345;-68
2021/12/12 06:01:50;;;;;;;103.88;22.20;;;;;;;;;;5040970;28;20045;-67
2021/12/12 06:04:19;;;;;;;85.28;22.90;;;;;;;;;;5040243;28;20029;-68
2021/12/12 06:07:07;;;;;;;;;;;;;;;;;;;;;
2021/12/12 06:09:39;;;;;;;106.15;23.38;;;;;;;;;;5060299;28;20028;-69
2021/12/12 06:12:07;;;;;;;95.38;23.60;;;;;;;;;;5059234;28;20029;-69
2021/12/12 06:14:35;;;;;;;103.47;23.85;;;;;;;;;;5058941;28;20461;-71
2021/12/12 06:17:06;;;;;;;104.47;24.75;;;;;;;;;;5058575;28;20437;-69
2021/12/12 06:19:37;;;;;;;98.03;20.45;;;;;;;;;;5058841;28;20021;-70
2021/12/12 06:22:06;;;;;;;100.47;18.75;;;;;;;;;;5057689;28;20025;-69
2021/12/12 06:24:35;;;;;;;88.80;19.50;;;;;;;;;;5039798;28;20029;-70
2021/12/12 06:27:14;;;;;;;101.20;20.35;;;;;;;;;;5057476;28;20360;-69
2021/12/12 06:29:46;;;;;;;86.65;19.60;;;;;;;;;;5057613;28;20698;-68
2021/12/12 06:32:15;;;;;;;85.43;18.90;;;;;;;;;;5056540;28;20437;-69
2021/12/12 06:34:43;;;;;;;95.93;21.50;;;;;;;;;;5040026;28;20040;-67
2021/12/12 06:37:13;;;;;;;92.30;20.23;;;;;;;;;;5040262;28;20321;-68
2021/12/12 06:39:41;;;;;;;74.97;19.13;;;;;;;;;;5039590;28;20051;-68
2021/12/12 06:42:10;;;;;;;78.20;19.60;;;;;;;;;;5040151;28;20029;-68
2021/12/12 06:45:07;;;;;;;87.18;20.75;;;;;;;;;;5036376;28;20041;-68
2021/12/12 06:47:40;;;;;;;87.90;19.67;;;;;;;;;;4957220;29;20032;-68
2021/12/12 06:50:08;;;;;;;78.75;21.13;;;;;;;;;;4958931;29;20043;-68
2021/12/12 06:52:52;;;;;;;91.15;23.05;;;;;;;;;;4920922;29;20044;-68
2021/12/12 06:55:20;;;;;;;85.15;22.25;;;;;;;;;;4920130;29;20047;-68
2021/12/12 06:58:01;;;;;;;77.07;20.15;;;;;;;;;;4920775;29;20056;-71
2021/12/12 07:00:29;;;;;;;83.97;20.20;;;;;;;;;;4921612;29;20020;-68
2021/12/12 07:02:56;;;;;;;87.10;21.23;;;;;;;;;;4920890;29;20040;-68
2021/12/12 07:05:29;;;;;;;78.68;19.77;;;;;;;;;;4919255;29;20426;-68
2021/12/12 07:07:58;;;;;;;86.20;21.65;;;;;;;;;;4920281;29;20038;-69
2021/12/12 07:10:26;;;;;;;82.55;19.50;;;;;;;;;;4920424;29;20043;-69
2021/12/12 07:12:55;;;;;;;81.88;20.42;;;;;;;;;;4919080;29;20052;-68
2021/12/12 07:15:23;;;;;;;80.20;22.40;;;;;;;;;;4918871;29;20036;-68
2021/12/12 07:17:53;;;;;;;86.13;21.58;;;;;;;;;;4918965;29;20063;-69
2021/12/12 07:20:21;;;;;;;86.22;21.40;;;;;;;;;;4919275;29;20061;-69
2021/12/12 07:22:52;;;;;;;84.57;21.27;;;;;;;;;;4934474;29;20035;-69
2021/12/12 07:25:26;;;;;;;82.15;21.98;;;;;;;;;;5002960;28;20053;-69
2021/12/12 07:27:54;;;;;;;101.50;24.02;;;;;;;;;;5015156;28;20084;-69
2021/12/12 07:30:22;;;;;;;99.00;23.08;;;;;;;;;;5028413;28;20056;-71
2021/12/12 07:32:51;;;;;;;84.57;21.60;;;;;;;;;;5035226;28;20017;-69
2021/12/12 07:35:19;;;;;;;84.38;21.95;;;;;;;;;;5035353;28;20319;-72
2021/12/12 07:37:48;;;;;;;82.88;20.88;;;;;;;;;;5036300;28;20036;-70
2021/12/12 07:40:16;;;;;;;94.45;21.20;;;;;;;;;;5036447;28;20359;-71
2021/12/12 07:42:46;;;;;;;85.63;19.17;;;;;;;;;;5036080;28;20025;-70
2021/12/12 07:45:14;;;;;;;85.40;18.00;;;;;;;;;;5035012;28;20487;-72
2021/12/12 07:47:43;;;;;;;84.13;18.33;;;;;;;;;;5034873;28;20098;-69
2021/12/12 07:50:12;;;;;;;93.57;17.02;;;;;;;;;;5035063;28;20326;-70
2021/12/12 07:52:40;;;;;;;75.88;17.02;;;;;;;;;;5035961;28;20095;-70
2021/12/12 07:55:08;;;;;;;87.90;18.13;;;;;;;;;;5034742;28;20022;-70
2021/12/12 07:57:36;;;;;;;82.93;16.45;;;;;;;;;;5035866;28;20025;-69
2021/12/12 08:00:08;;;;;;;73.10;14.93;;;;;;;;;;5035807;28;20022;-70
2021/12/12 08:02:35;;;;;;;80.38;15.13;;;;;;;;;;5034596;28;20096;-68
2021/12/12 08:05:04;;;;;;;96.35;15.52;;;;;;;;;;5035012;28;20368;-69
2021/12/12 08:07:34;;;;;;;68.57;15.32;;;;;;;;;;5013842;28;20124;-69
2021/12/12 08:10:02;;;;;;;79.90;15.25;;;;;;;;;;4997338;28;20030;-68
2021/12/12 08:12:30;;;;;;;79.65;13.30;;;;;;;;;;5013826;28;20468;-66
2021/12/12 08:14:57;;;;;;;69.50;12.77;;;;;;;;;;5014134;28;20042;-67
2021/12/12 08:17:26;;;;;;;70.78;13.02;;;;;;;;;;4997641;28;20118;-66
2021/12/12 08:19:56;;;;;;;79.25;15.32;;;;;;;;;;5013987;28;20431;-67
2021/12/12 08:22:24;;;;;;;80.57;14.57;;;;;;;;;;5013817;28;20450;-66
2021/12/12 08:24:55;;;;;;;69.95;15.00;;;;;;;;;;4997059;28;20080;-67
2021/12/12 08:27:23;;;;;;;74.82;14.88;;;;;;;;;;4997477;28;20037;-68
2021/12/12 08:29:51;;;;;;;77.75;14.25;;;;;;;;;;4997727;28;20137;-68
2021/12/12 08:32:19;;;;;;;81.05;18.40;;;;;;;;;;5014054;28;20074;-67
2021/12/12 08:34:47;;;;;;;73.90;13.75;;;;;;;;;;5013795;28;20036;-67
2021/12/12 08:37:15;;;;;;;90.63;22.75;;;;;;;;;;4997570;28;20030;-69
2021/12/12 08:39:43;;;;;;;78.82;16.83;;;;;;;;;;5035658;28;20021;-67
2021/12/12 08:42:10;;;;;;;80.63;17.27;;;;;;;;;;5035575;28;20096;-68
2021/12/12 08:44:38;;;;;;;87.13;15.38;;;;;;;;;;5034674;28;20029;-68
2021/12/12 08:47:09;;;;;;;80.90;16.02;;;;;;;;;;5034699;28;20029;-69
2021/12/12 08:49:38;;;;;;;85.47;18.33;;;;;;;;;;5035635;28;20029;-68
2021/12/12 08:52:10;;;;;;;96.47;16.48;;;;;;;;;;5035534;28;20028;-68
2021/12/12 08:54:40;;;;;;;105.90;16.00;;;;;;;;;;5035470;28;20028;-69
2021/12/12 08:57:20;;;;;;;75.25;16.25;;;;;;;;;;5037885;28;20025;-69
2021/12/12 08:59:48;;;;;;;107.60;16.25;;;;;;;;;;5038868;28;20017;-69
2021/12/12 09:02:18;;;;;;;83.50;16.23;;;;;;;;;;5039541;28;20128;-68
2021/12/12 09:04:51;;;;;;;82.07;16.27;;;;;;;;;;5001108;28;20383;-67
2021/12/12 09:07:29;;;;;;;86.57;16.85;;;;;;;;;;5017514;28;20054;-68
2021/12/12 09:10:09;;;;;;;85.65;17.83;;;;;;;;;;5019060;28;20500;-69
2021/12/12 09:12:38;;;;;;;88.95;19.75;;;;;;;;;;5002602;28;20037;-68
2021/12/12 09:15:11;;;;;;;94.40;21.00;;;;;;;;;;5000693;28;20045;-68
2021/12/12 09:17:44;;;;;;;82.95;19.38;;;;;;;;;;5017085;28;20030;-68
2021/12/12 09:20:27;;;;;;;71.13;19.95;;;;;;;;;;5017142;28;20042;-69
2021/12/12 09:23:06;;;;;;;94.80;18.27;;;;;;;;;;5017103;28;20045;-69
2021/12/12 09:25:42;;;;;;;101.95;20.02;;;;;;;;;;4997140;28;20042;-70
2021/12/12 09:28:17;;;;;;;94.75;24.77;;;;;;;;;;4998125;28;20057;-69
2021/12/12 09:30:45;;;;;;;94.35;24.25;;;;;;;;;;4997613;28;20190;-69
2021/12/12 09:33:19;;;;;;;110.60;27.20;;;;;;;;;;4997283;28;20035;-70
2021/12/12 09:36:00;;;;;;;108.80;36.40;;;;;;;;;;4997506;28;20027;-69
2021/12/12 09:38:48;;;;;;;110.13;34.47;;;;;;;;;;4997328;28;20062;-69
2021/12/12 09:41:37;;;;;;;130.98;41.58;;;;;;;;;;4920064;29;20064;-69
2021/12/12 09:44:22;;;;;;;130.50;39.10;;;;;;;;;;4904116;29;20040;-68
2021/12/12 09:47:12;;;;;;;135.38;38.35;;;;;;;;;;4904321;29;20139;-69
2021/12/12 09:52:53;;;;;;;118.80;36.13;;;;;;;;;;4920192;29;20035;-69
2021/12/12 09:55:47;;;;;;;183.23;61.95;;;;;;;;;;4931808;29;20043;-68
2021/12/12 09:58:34;;;;;;;180.07;70.47;;;;;;;;;;4885164;29;20037;-70
2021/12/12 10:01:10;;;;;;;155.00;54.28;;;;;;;;;;4901862;29;20039;-70
2021/12/12 10:03:55;;;;;;;160.73;54.70;;;;;;;;;;4915559;29;20047;-69
2021/12/12 10:06:46;;;;;;;150.45;47.38;;;;;;;;;;4903913;29;20119;-68
2021/12/12 10:09:16;;;;;;;151.50;45.60;;;;;;;;;;4847892;29;20034;-68
2021/12/12 10:11:56;;;;;;;167.25;54.92;;;;;;;;;;4863421;29;20042;-69
2021/12/12 10:14:41;;;;;;;152.23;45.03;;;;;;;;;;4862899;29;20073;-70
2021/12/12 10:17:12;;;;;;;116.65;37.55;;;;;;;;;;4863246;29;20030;-69
2021/12/12 10:19:51;;;;;;;132.05;39.67;;;;;;;;;;4900588;29;20036;-69
2021/12/12 10:22:35;;;;;;;113.53;38.28;;;;;;;;;;4901443;29;20069;-70
2021/12/12 10:25:13;;;;;;;135.98;39.90;;;;;;;;;;4900735;29;20036;-68
2021/12/12 10:27:59;;;;;;;118.82;36.15;;;;;;;;;;4900889;29;20156;-69
2021/12/12 10:30:49;;;;;;;120.60;36.70;;;;;;;;;;4900965;29;20067;-69
2021/12/12 10:33:20;;;;;;;121.35;41.03;;;;;;;;;;4900283;29;20128;-69
2021/12/12 10:35:55;;;;;;;120.57;40.50;;;;;;;;;;4947160;29;20035;-69
2021/12/12 10:38:51;;;;;;;134.68;40.15;;;;;;;;;;4957299;29;20055;-68
2021/12/12 10:41:39;;;;;;;136.70;41.40;;;;;;;;;;4919278;29;20052;-68
2021/12/12 10:44:19;;;;;;;120.70;39.15;;;;;;;;;;4863051;29;20405;-68
2021/12/12 10:47:04;;;;;;;115.30;39.00;;;;;;;;;;4861126;29;20044;-66
2021/12/12 10:49:37;;;;;;;128.18;43.28;;;;;;;;;;4881461;29;20052;-68
2021/12/12 10:52:32;;;;;;;142.50;47.33;;;;;;;;;;4881175;29;20040;-67
2021/12/12 10:55:09;;;;;;;147.10;51.72;;;;;;;;;;4877250;29;20055;-68
2021/12/12 10:57:37;;;;;;;140.65;48.45;;;;;;;;;;4881202;29;20037;-68
2021/12/12 11:00:16;;;;;;;145.98;46.65;;;;;;;;;;4881453;29;20084;-68
2021/12/12 11:02:49;;;;;;;137.18;45.65;;;;;;;;;;4897232;29;20074;-68
2021/12/12 11:05:19;;;;;;;141.85;44.42;;;;;;;;;;4882450;29;20047;-68
2021/12/12 11:08:03;;;;;;;153.55;45.33;;;;;;;;;;4881277;29;20060;-68
2021/12/12 11:10:53;;;;;;;124.53;38.38;;;;;;;;;;4885808;29;20045;-69
2021/12/12 11:13:31;;;;;;;119.70;38.38;;;;;;;;;;4873231;29;20362;-68
2021/12/12 11:16:03;;;;;;;95.93;36.33;;;;;;;;;;4885113;29;20130;-66
2021/12/12 11:18:41;;;;;;;123.25;38.45;;;;;;;;;;4913029;29;20044;-67
2021/12/12 11:21:43;;;;;;;139.57;37.20;;;;;;;;;;4965609;28;20117;-67
2021/12/12 11:24:31;;;;;;;123.90;36.25;;;;;;;;;;4919602;29;20040;-68
2021/12/12 11:27:18;;;;;;;117.82;36.08;;;;;;;;;;4926776;29;20082;-67
2021/12/12 11:30:00;;;;;;;119.88;37.03;;;;;;;;;;4923699;29;20072;-67
2021/12/12 11:32:31;;;;;;;126.28;40.47;;;;;;;;;;4921282;29;20040;-67
2021/12/12 11:35:00;;;;;;;142.73;47.92;;;;;;;;;;4922203;29;20420;-69
2021/12/12 11:37:44;;;;;;;130.52;42.33;;;;;;;;;;4918539;29;20115;-67
2021/12/12 11:40:20;;;;;;;126.47;42.17;;;;;;;;;;4918936;29;20127;-67
2021/12/12 11:43:12;;;;;;;129.48;46.42;;;;;;;;;;4919908;29;20449;-67
2021/12/12 11:45:44;;;;;;;131.15;46.72;;;;;;;;;;4922847;29;20039;-67
2021/12/12 11:48:23;;;;;;;151.80;49.50;;;;;;;;;;4922744;29;20449;-69
2021/12/12 11:50:57;;;;;;;136.10;49.55;;;;;;;;;;4920743;29;20043;-68
2021/12/12 11:53:37;;;;;;;159.75;59.80;;;;;;;;;;4921041;29;20040;-67
2021/12/12 11:56:45;;;;;;;;;;;;;;;;;;;;;
2021/12/12 11:59:50;;;;;;;253.32;86.82;;;;;;;;;;4982545;28;20018;-67
2021/12/12 12:02:37;;;;;;;203.05;71.32;;;;;;;;;;4918072;29;20037;-68
2021/12/12 12:05:23;;;;;;;201.75;72.32;;;;;;;;;;4884401;29;20024;-68
2021/12/12 12:08:08;;;;;;;202.88;77.70;;;;;;;;;;4970015;28;20478;-67
2021/12/12 12:10:58;;;;;;;180.85;64.25;;;;;;;;;;4976170;28;20034;-67
2021/12/12 12:13:30;;;;;;;187.13;57.35;;;;;;;;;;4937273;29;20048;-68
2021/12/12 12:16:09;;;;;;;171.38;55.17;;;;;;;;;;4880289;29;20109;-68
2021/12/12 12:18:55;;;;;;;136.93;48.75;;;;;;;;;;4880205;29;20146;-67
2021/12/12 12:21:40;;;;;;;139.13;49.72;;;;;;;;;;4880206;29;20084;-67
2021/12/12 12:24:36;;;;;;;139.02;46.13;;;;;;;;;;4880694;29;20033;-68
2021/12/12 12:27:08;;;;;;;142.15;46.25;;;;;;;;;;4880700;29;20040;-67
2021/12/12 12:29:54;;;;;;;137.65;48.03;;;;;;;;;;4879965;29;20418;-68
2021/12/12 12:32:39;;;;;;;151.35;50.00;;;;;;;;;;4884626;29;20454;-67
2021/12/12 12:35:25;;;;;;;144.75;49.00;;;;;;;;;;4883605;29;20099;-67
2021/12/12 12:38:10;;;;;;;183.07;53.35;;;;;;;;;;4887025;29;20041;-67
2021/12/12 12:40:56;;;;;;;143.65;49.47;;;;;;;;;;4903379;29;20029;-66
2021/12/12 12:43:42;;;;;;;147.27;50.35;;;;;;;;;;4903002;29;20060;-67
2021/12/12 12:46:26;;;;;;;153.38;51.47;;;;;;;;;;4911758;29;20408;-68
2021/12/12 12:49:13;;;;;;;155.38;52.45;;;;;;;;;;4960068;29;20027;-67
2021/12/12 12:51:53;;;;;;;165.15;58.67;;;;;;;;;;5039625;28;20105;-67
2021/12/12 12:54:38;;;;;;;173.75;61.13;;;;;;;;;;5039623;28;20040;-67
2021/12/12 12:57:27;;;;;;;174.63;64.65;;;;;;;;;;5039755;28;20022;-67
2021/12/12 13:00:14;;;;;;;190.70;69.65;;;;;;;;;;5038828;28;20517;-67
2021/12/12 13:02:52;;;;;;;200.93;73.60;;;;;;;;;;5039388;28;20434;-68
2021/12/12 13:05:28;;;;;;;202.10;75.75;;;;;;;;;;5038247;28;20071;-67
2021/12/12 13:08:12;;;;;;;205.35;78.07;;;;;;;;;;5039742;28;20021;-67
2021/12/12 13:10:41;;;;;;;200.90;79.90;;;;;;;;;;5038533;28;20022;-68
2021/12/12 13:13:10;;;;;;;228.23;87.60;;;;;;;;;;5045113;28;20048;-67
2021/12/12 13:15:41;;;;;;;230.95;88.38;;;;;;;;;;5058919;28;20021;-67
2021/12/12 13:18:26;;;;;;;214.68;83.05;;;;;;;;;;5059191;28;20040;-67
2021/12/12 13:21:11;;;;;;;189.90;72.85;;;;;;;;;;5041733;28;20441;-67
2021/12/12 13:24:00;;;;;;;151.02;54.40;;;;;;;;;;5043094;28;20020;-70
2021/12/12 13:26:45;;;;;;;126.90;47.50;;;;;;;;;;5068471;28;20328;-68
2021/12/12 13:29:31;;;;;;;154.88;49.00;;;;;;;;;;5059696;28;20067;-67
2021/12/12 13:32:09;;;;;;;198.45;66.85;;;;;;;;;;5059177;28;20025;-68
2021/12/12 13:34:48;;;;;;;189.50;72.13;;;;;;;;;;5041080;28;20028;-66
2021/12/12 13:37:20;;;;;;;191.68;68.40;;;;;;;;;;5058814;28;20079;-68
2021/12/12 13:40:05;;;;;;;209.10;80.13;;;;;;;;;;5040958;28;20033;-67
2021/12/12 13:42:40;;;;;;;204.85;78.70;;;;;;;;;;5058036;28;20021;-66
2021/12/12 13:45:25;;;;;;;171.15;62.72;;;;;;;;;;5059939;28;20025;-69
2021/12/12 13:48:01;;;;;;;175.23;64.05;;;;;;;;;;5058431;28;20071;-68
2021/12/12 13:50:33;;;;;;;400.25;180.25;;;;;;;;;;5060139;28;20025;-67
2021/12/12 13:53:09;;;;;;;321.02;138.00;;;;;;;;;;5058604;28;20029;-67
2021/12/12 13:55:54;;;;;;;300.38;126.13;;;;;;;;;;5042369;28;20025;-68
2021/12/12 13:58:37;;;;;;;476.42;193.40;;;;;;;;;;5041376;28;20083;-68
2021/12/12 14:01:13;;;;;;;480.02;200.40;;;;;;;;;;5058587;28;20021;-67
2021/12/12 14:04:05;;;;;;;480.73;193.25;;;;;;;;;;5067123;28;20043;-70
2021/12/12 14:06:38;;;;;;;375.58;134.18;;;;;;;;;;5233736;22;20405;-71
2021/12/12 14:09:14;;;;;;;481.45;173.82;;;;;;;;;;5034933;28;20030;-68
2021/12/12 14:11:44;;;;;;;475.63;183.95;;;;;;;;;;4981829;28;20039;-67
2021/12/12 14:14:24;;;;;;;479.60;186.45;;;;;;;;;;4981727;28;20054;-69
2021/12/12 14:16:57;;;;;;;354.80;137.70;;;;;;;;;;4961846;28;20336;-68
2021/12/12 14:19:34;;;;;;;320.13;127.03;;;;;;;;;;4966599;28;20027;-68
2021/12/12 14:22:02;;;;;;;264.42;100.68;;;;;;;;;;4978555;28;20030;-69
2021/12/12 14:24:33;;;;;;;257.02;96.00;;;;;;;;;;4977269;28;20023;-69
2021/12/12 14:27:01;;;;;;;192.55;67.55;;;;;;;;;;4964608;28;20128;-71
2021/12/12 14:29:33;;;;;;;158.32;54.10;;;;;;;;;;4978807;28;20062;-68
2021/12/12 14:32:07;;;;;;;157.27;54.75;;;;;;;;;;4977091;28;20031;-72
2021/12/12 14:34:57;;;;;;;152.35;53.30;;;;;;;;;;4961510;28;20030;-70
2021/12/12 14:37:28;;;;;;;146.77;52.55;;;;;;;;;;4957552;29;20038;-68
2021/12/12 14:40:00;;;;;;;138.45;46.10;;;;;;;;;;4957019;29;20035;-73
2021/12/12 14:42:29;;;;;;;131.27;42.80;;;;;;;;;;4940918;29;20035;-72
2021/12/12 14:45:08;;;;;;;130.88;43.15;;;;;;;;;;4957161;29;20031;-75
2021/12/12 14:47:38;;;;;;;162.10;47.55;;;;;;;;;;4957002;29;20054;-71
2021/12/12 14:50:12;;;;;;;164.18;53.28;;;;;;;;;;4957011;29;20035;-69
2021/12/12 14:52:41;;;;;;;166.00;51.75;;;;;;;;;;4956639;28;20151;-69
2021/12/12 14:55:19;;;;;;;146.98;44.58;;;;;;;;;;4963544;28;20045;-69
2021/12/12 14:57:48;;;;;;;134.43;44.22;;;;;;;;;;4960141;28;20610;-69
2021/12/12 15:00:20;;;;;;;134.18;43.00;;;;;;;;;;4976269;28;20038;-68
2021/12/12 15:02:58;;;;;;;120.40;41.88;;;;;;;;;;4959993;28;20463;-67
2021/12/12 15:05:26;;;;;;;128.40;45.90;;;;;;;;;;4959689;28;20035;-68
2021/12/12 15:07:55;;;;;;;153.68;56.10;;;;;;;;;;4988729;28;20057;-67
2021/12/12 15:10:33;;;;;;;170.73;59.78;;;;;;;;;;5017030;28;20347;-68
2021/12/12 15:13:09;;;;;;;143.32;50.50;;;;;;;;;;5016891;28;20771;-68
2021/12/12 15:15:41;;;;;;;135.57;46.45;;;;;;;;;;5015786;28;20083;-68